Time;durP1;ratioP1;P1;durP2;ratioP2;P2;SDS_P1;SDS_P2;PMS_P1;PMS_P2;Temp;Humidity;BMP_temperature;BMP_pressure;BME280_temperature;BME280_humidity;BME280_pressure;Samples;Min_cycle;Max_cycle;Signal;HPM_P1;HPM_P2
2021/11/24 00:02:18;;;;;;;;;;;21.20;99.90;;;;;;5071683;28;19944;-73
2021/11/24 00:04:45;;;;;;;;;;;21.30;99.90;;;;;;5071784;28;19913;-71
2021/11/24 00:07:12;;;;;;;;;;;21.30;99.90;;;;;;5071996;28;19961;-74
2021/11/24 00:09:38;;;;;;;;;;;21.30;99.90;;;;;;5072052;28;19908;-74
2021/11/24 00:12:05;;;;;;;;;;;21.40;99.90;;;;;;5071912;28;19913;-71
2021/11/24 00:14:32;;;;;;;;;;;21.40;99.90;;;;;;5071892;28;20057;-73
2021/11/24 00:16:59;;;;;;;;;;;21.40;99.90;;;;;;5071723;28;19935;-74
2021/11/24 00:19:25;;;;;;;;;;;21.30;99.90;;;;;;5071953;28;19909;-74
2021/11/24 00:21:52;;;;;;;;;;;21.30;99.90;;;;;;5071999;28;20313;-73
2021/11/24 00:24:21;;;;;;;;;;;21.20;99.90;;;;;;5071907;28;19916;-73
2021/11/24 00:26:48;;;;;;;;;;;21.20;99.90;;;;;;5072704;28;19908;-71
2021/11/24 00:29:14;;;;;;;;;;;21.30;99.90;;;;;;5075232;28;20045;-68
2021/11/24 00:31:41;;;;;;;;;;;21.40;99.90;;;;;;5073877;28;20317;-71
2021/11/24 00:34:08;;;;;;;;;;;21.60;99.90;;;;;;5075062;28;19919;-71
2021/11/24 00:36:35;;;;;;;;;;;21.80;99.90;;;;;;5075144;28;20436;-71
2021/11/24 00:39:01;;;;;;;;;;;21.90;99.90;;;;;;5075005;28;19915;-70
2021/11/24 00:41:28;;;;;;;;;;;21.90;99.90;;;;;;5075049;28;19912;-69
2021/11/24 00:43:55;;;;;;;;;;;22.00;99.90;;;;;;5075016;28;19995;-72
2021/11/24 00:46:21;;;;;;;;;;;22.10;99.90;;;;;;5074889;28;19909;-71
2021/11/24 00:48:48;;;;;;;;;;;22.30;99.90;;;;;;5075023;28;19909;-70
2021/11/24 00:51:15;;;;;;;;;;;22.50;99.90;;;;;;5075016;28;19912;-71
2021/11/24 00:53:41;;;;;;;;;;;22.60;99.90;;;;;;5074753;28;19908;-75
2021/11/24 00:56:08;;;;;;;;;;;22.80;99.90;;;;;;5074614;28;19916;-74
2021/11/24 00:58:35;;;;;;;;;;;22.80;99.90;;;;;;5074688;28;20421;-75
2021/11/24 01:01:01;;;;;;;;;;;22.80;99.90;;;;;;5074517;28;20397;-71
2021/11/24 01:03:28;;;;;;;;;;;22.80;99.90;;;;;;5074944;28;19909;-70
2021/11/24 01:05:55;;;;;;;;;;;22.80;99.90;;;;;;5073211;28;19919;-70
2021/11/24 01:08:22;;;;;;;;;;;23.00;99.90;;;;;;5074849;28;19915;-71
2021/11/24 01:10:49;;;;;;;;;;;23.30;99.90;;;;;;5074922;28;19954;-72
2021/11/24 01:13:16;;;;;;;;;;;23.30;99.90;;;;;;5074477;28;19908;-70
2021/11/24 01:15:43;;;;;;;;;;;23.60;99.90;;;;;;5074390;28;19970;-73
2021/11/24 01:18:10;;;;;;;;;;;23.90;99.90;;;;;;5074154;28;19909;-70
2021/11/24 01:20:39;;;;;;;;;;;23.90;99.90;;;;;;5074409;28;19909;-74
2021/11/24 01:23:06;;;;;;;;;;;23.70;99.90;;;;;;5074536;28;19909;-71
2021/11/24 01:25:33;;;;;;;;;;;23.70;99.90;;;;;;5074425;28;19909;-72
2021/11/24 01:27:59;;;;;;;;;;;23.60;99.90;;;;;;5074096;28;20007;-74
2021/11/24 01:30:26;;;;;;;;;;;23.50;99.90;;;;;;5074054;28;19908;-72
2021/11/24 01:32:53;;;;;;;;;;;23.40;99.90;;;;;;5074264;28;19913;-70
2021/11/24 01:35:20;;;;;;;;;;;23.30;99.90;;;;;;5074343;28;19913;-71
2021/11/24 01:37:47;;;;;;;;;;;23.30;99.90;;;;;;5073499;28;20007;-70
2021/11/24 01:40:13;;;;;;;;;;;23.40;99.90;;;;;;5074230;28;19995;-70
2021/11/24 01:42:40;;;;;;;;;;;23.50;99.90;;;;;;5073896;28;20355;-71
2021/11/24 01:45:08;;;;;;;;;;;23.50;99.90;;;;;;5073964;28;19916;-70
2021/11/24 01:47:35;;;;;;;;;;;23.60;99.90;;;;;;5073680;28;19912;-71
2021/11/24 01:50:04;;;;;;;;;;;23.80;99.90;;;;;;5073528;28;20483;-73
2021/11/24 01:52:32;;;;;;;;;;;23.90;99.90;;;;;;5073606;28;20378;-69
2021/11/24 01:54:59;;;;;;;;;;;24.00;99.90;;;;;;5073621;28;20374;-69
2021/11/24 01:57:28;;;;;;;;;;;24.00;99.90;;;;;;5073979;28;20004;-70
2021/11/24 01:59:56;;;;;;;;;;;24.10;99.90;;;;;;5073364;28;19928;-73
2021/11/24 02:02:24;;;;;;;;;;;24.20;99.90;;;;;;5073350;28;20248;-72
2021/11/24 02:04:50;;;;;;;;;;;24.20;99.90;;;;;;5073538;28;19963;-71
2021/11/24 02:07:17;;;;;;;;;;;24.20;99.90;;;;;;5073422;28;19944;-73
2021/11/24 02:09:44;;;;;;;;;;;24.20;99.90;;;;;;5073487;28;19908;-73
2021/11/24 02:12:12;;;;;;;;;;;24.10;99.90;;;;;;5073353;28;19912;-74
2021/11/24 02:14:39;;;;;;;;;;;23.90;99.90;;;;;;5073510;28;19908;-69
2021/11/24 02:17:06;;;;;;;;;;;23.80;99.90;;;;;;5073284;28;20247;-70
2021/11/24 02:19:33;;;;;;;;;;;23.80;99.90;;;;;;5073401;28;19909;-71
2021/11/24 02:22:00;;;;;;;;;;;23.90;99.90;;;;;;5073149;28;19931;-74
2021/11/24 02:24:29;;;;;;;;;;;24.00;99.90;;;;;;5073380;28;20381;-73
2021/11/24 02:26:56;;;;;;;;;;;24.20;99.90;;;;;;5073188;28;20350;-69
2021/11/24 02:29:23;;;;;;;;;;;24.20;99.90;;;;;;5073077;28;19908;-73
2021/11/24 02:31:50;;;;;;;;;;;24.40;99.90;;;;;;5072839;28;20032;-69
2021/11/24 02:34:17;;;;;;;;;;;24.20;99.90;;;;;;5073156;28;19914;-75
2021/11/24 02:36:44;;;;;;;;;;;24.20;99.90;;;;;;5072895;28;19917;-73
2021/11/24 02:39:11;;;;;;;;;;;24.10;99.90;;;;;;5073088;28;19915;-72
2021/11/24 02:41:38;;;;;;;;;;;24.10;99.90;;;;;;5072925;28;19919;-75
2021/11/24 02:44:23;;;;;;;;;;;24.20;99.90;;;;;;5072781;28;19912;-70
2021/11/24 02:46:50;;;;;;;;;;;24.10;99.90;;;;;;5072738;28;19909;-73
2021/11/24 02:49:17;;;;;;;;;;;24.00;99.90;;;;;;5072117;28;20373;-71
2021/11/24 02:51:44;;;;;;;;;;;24.10;99.90;;;;;;5072704;28;19995;-70
2021/11/24 02:54:11;;;;;;;;;;;24.20;99.90;;;;;;5072563;28;19991;-73
2021/11/24 02:56:39;;;;;;;;;;;24.30;99.90;;;;;;5072809;28;19917;-74
2021/11/24 02:59:07;;;;;;;;;;;24.40;99.90;;;;;;5072732;28;19970;-73
2021/11/24 03:01:34;;;;;;;;;;;24.40;99.90;;;;;;5072431;28;20403;-72
2021/11/24 03:04:00;;;;;;;;;;;24.50;99.90;;;;;;5072370;28;19931;-73
2021/11/24 03:06:27;;;;;;;;;;;24.30;99.90;;;;;;5072720;28;19908;-72
2021/11/24 03:08:54;;;;;;;;;;;24.00;99.90;;;;;;5072558;28;19962;-72
2021/11/24 03:11:20;;;;;;;;;;;24.20;99.90;;;;;;5072692;28;19943;-74
2021/11/24 03:13:47;;;;;;;;;;;24.20;99.90;;;;;;5072448;28;20355;-73
2021/11/24 03:16:14;;;;;;;;;;;24.30;99.90;;;;;;5072384;28;20282;-68
2021/11/24 03:18:40;;;;;;;;;;;24.30;99.90;;;;;;5072721;28;20003;-74
2021/11/24 03:21:07;;;;;;;;;;;24.30;99.90;;;;;;5072443;28;19999;-72
2021/11/24 03:23:34;;;;;;;;;;;24.20;99.90;;;;;;5088007;28;19908;-74
2021/11/24 03:26:01;;;;;;;;;;;24.30;99.90;;;;;;5072280;28;19917;-73
2021/11/24 03:28:27;;;;;;;;;;;24.50;99.90;;;;;;5072427;28;19922;-73
2021/11/24 03:30:54;;;;;;;;;;;24.50;99.90;;;;;;5072231;28;19909;-73
2021/11/24 03:33:21;;;;;;;;;;;24.50;99.90;;;;;;5072341;28;19914;-71
2021/11/24 03:35:47;;;;;;;;;;;24.60;99.90;;;;;;5072031;28;19916;-73
2021/11/24 03:38:14;;;;;;;;;;;24.50;99.90;;;;;;5072292;28;19915;-73
2021/11/24 03:40:41;;;;;;;;;;;24.50;99.90;;;;;;5072399;28;20330;-72
2021/11/24 03:43:08;;;;;;;;;;;24.30;99.90;;;;;;5072151;28;19908;-75
2021/11/24 03:45:36;;;;;;;;;;;24.20;99.90;;;;;;5071931;28;19912;-71
2021/11/24 03:48:04;;;;;;;;;;;24.20;99.90;;;;;;5071804;28;19908;-71
2021/11/24 03:50:32;;;;;;;;;;;24.20;99.90;;;;;;5072105;28;20319;-73
2021/11/24 03:52:59;;;;;;;;;;;24.10;99.90;;;;;;5072047;28;19931;-74
2021/11/24 03:55:25;;;;;;;;;;;24.10;99.90;;;;;;5072030;28;20377;-73
2021/11/24 03:57:52;;;;;;;;;;;24.10;99.90;;;;;;5071818;28;19909;-74
2021/11/24 04:00:21;;;;;;;;;;;24.00;99.90;;;;;;5072044;28;19920;-73
2021/11/24 04:02:48;;;;;;;;;;;24.10;99.90;;;;;;5075624;28;19940;-71
2021/11/24 04:05:16;;;;;;;;;;;24.20;99.90;;;;;;5075575;28;19966;-69
2021/11/24 04:07:42;;;;;;;;;;;24.20;99.90;;;;;;5075776;28;19939;-71
2021/11/24 04:10:10;;;;;;;;;;;24.00;99.90;;;;;;5075667;28;19909;-70
2021/11/24 04:12:37;;;;;;;;;;;24.00;99.90;;;;;;5075749;28;19995;-70
2021/11/24 04:15:07;;;;;;;;;;;23.90;99.90;;;;;;5075250;28;19919;-74
2021/11/24 04:17:34;;;;;;;;;;;23.80;99.90;;;;;;5075455;28;20061;-74
2021/11/24 04:20:01;;;;;;;;;;;23.70;99.90;;;;;;5075509;28;19908;-72
2021/11/24 04:22:27;;;;;;;;;;;23.60;99.90;;;;;;5075605;28;19954;-73
2021/11/24 04:24:54;;;;;;;;;;;23.60;99.90;;;;;;5075551;28;19955;-73
2021/11/24 04:27:22;;;;;;;;;;;23.60;99.90;;;;;;5075528;28;19915;-74
2021/11/24 04:29:49;;;;;;;;;;;23.50;99.90;;;;;;5074706;28;19909;-70
2021/11/24 04:32:19;;;;;;;;;;;23.40;99.90;;;;;;5075299;28;19955;-71
2021/11/24 04:34:46;;;;;;;;;;;23.40;99.90;;;;;;5075019;28;19912;-74
2021/11/24 04:37:13;;;;;;;;;;;23.40;99.90;;;;;;5074965;28;20003;-71
2021/11/24 04:39:40;;;;;;;;;;;23.40;99.90;;;;;;5074889;28;19909;-69
2021/11/24 04:42:07;;;;;;;;;;;23.40;99.90;;;;;;5074856;28;19995;-75
2021/11/24 04:44:33;;;;;;;;;;;23.40;99.90;;;;;;5074838;28;20386;-68
2021/11/24 04:47:00;;;;;;;;;;;23.40;99.90;;;;;;5075062;28;19909;-74
2021/11/24 04:49:27;;;;;;;;;;;23.50;99.90;;;;;;5075308;28;19908;-73
2021/11/24 04:51:53;;;;;;;;;;;23.50;99.90;;;;;;5074828;28;19954;-74
2021/11/24 04:54:20;;;;;;;;;;;23.50;99.90;;;;;;5074819;28;19919;-72
2021/11/24 04:56:47;;;;;;;;;;;23.50;99.90;;;;;;5073458;28;19917;-74
2021/11/24 04:59:14;;;;;;;;;;;23.40;99.90;;;;;;5074585;28;20287;-72
2021/11/24 05:01:42;;;;;;;;;;;23.50;99.90;;;;;;5074514;28;19920;-75
2021/11/24 05:04:08;;;;;;;;;;;23.50;99.90;;;;;;5074511;28;20238;-74
2021/11/24 05:06:35;;;;;;;;;;;23.60;99.90;;;;;;5074423;28;19913;-71
2021/11/24 05:09:02;;;;;;;;;;;23.50;99.90;;;;;;5074921;28;19955;-74
2021/11/24 05:11:28;;;;;;;;;;;23.50;99.90;;;;;;5074861;28;20366;-74
2021/11/24 05:13:59;;;;;;;;;;;23.50;99.90;;;;;;5073530;28;19913;-74
2021/11/24 05:16:30;;;;;;;;;;;23.60;99.90;;;;;;5074382;28;20010;-75
2021/11/24 05:18:58;;;;;;;;;;;23.60;99.90;;;;;;5074423;28;19908;-74
2021/11/24 05:21:33;;;;;;;;;;;23.60;99.90;;;;;;5074211;28;19935;-73
2021/11/24 05:24:00;;;;;;;;;;;23.60;99.90;;;;;;5089773;28;19915;-74
2021/11/24 05:26:28;;;;;;;;;;;23.50;99.90;;;;;;5074428;28;20316;-72
2021/11/24 05:28:55;;;;;;;;;;;23.30;99.90;;;;;;5074231;28;19913;-74
2021/11/24 05:31:22;;;;;;;;;;;23.10;99.90;;;;;;5074089;28;20066;-71
2021/11/24 05:33:49;;;;;;;;;;;23.10;99.90;;;;;;5073868;28;19947;-74
2021/11/24 05:36:16;;;;;;;;;;;23.10;99.90;;;;;;5073899;28;20027;-75
2021/11/24 05:38:43;;;;;;;;;;;23.00;99.90;;;;;;5074093;28;20359;-71
2021/11/24 05:41:10;;;;;;;;;;;23.00;99.90;;;;;;5074083;28;20323;-72
2021/11/24 05:43:37;;;;;;;;;;;23.00;99.90;;;;;;5074002;28;20351;-74
2021/11/24 05:46:14;;;;;;;;;;;23.00;99.90;;;;;;5073654;28;20263;-72
2021/11/24 05:48:42;;;;;;;;;;;23.00;99.90;;;;;;5074036;28;19962;-69
2021/11/24 05:51:09;;;;;;;;;;;22.90;99.90;;;;;;5072395;28;20007;-72
2021/11/24 05:53:36;;;;;;;;;;;22.80;99.90;;;;;;5071398;28;20002;-73
2021/11/24 05:56:02;;;;;;;;;;;22.80;99.90;;;;;;5071238;28;19973;-74
2021/11/24 05:58:29;;;;;;;;;;;22.70;99.90;;;;;;5071517;28;19916;-75
2021/11/24 06:00:56;;;;;;;;;;;22.70;99.90;;;;;;5071340;28;20382;-75
2021/11/24 06:03:26;;;;;;;;;;;22.60;99.90;;;;;;5070570;28;20139;-75
2021/11/24 06:05:53;;;;;;;;;;;22.60;99.90;;;;;;5070921;28;20297;-75
2021/11/24 06:08:19;;;;;;;;;;;22.50;99.90;;;;;;5071481;28;20003;-75
2021/11/24 06:10:47;;;;;;;;;;;22.50;99.90;;;;;;5071303;28;20359;-75
2021/11/24 06:13:14;;;;;;;;;;;22.50;99.90;;;;;;5071326;28;19908;-75
2021/11/24 06:15:41;;;;;;;;;;;22.50;99.90;;;;;;5071123;28;19971;-74
2021/11/24 06:18:09;;;;;;;;;;;22.40;99.90;;;;;;5070542;28;19943;-77
2021/11/24 06:20:36;;;;;;;;;;;22.30;99.90;;;;;;5071043;28;20069;-71
2021/11/24 06:23:03;;;;;;;;;;;22.30;99.90;;;;;;5071028;28;19908;-73
2021/11/24 06:25:30;;;;;;;;;;;22.30;99.90;;;;;;5069991;28;20358;-71
2021/11/24 06:27:56;;;;;;;;;;;22.20;99.90;;;;;;5070832;28;20386;-72
2021/11/24 06:30:24;;;;;;;;;;;22.20;99.90;;;;;;5070329;28;20274;-74
2021/11/24 06:32:50;;;;;;;;;;;22.10;99.90;;;;;;5070852;28;20000;-72
2021/11/24 06:35:17;;;;;;;;;;;22.10;99.90;;;;;;5070957;28;19917;-74
2021/11/24 06:37:44;;;;;;;;;;;22.10;99.90;;;;;;5070900;28;19920;-72
2021/11/24 06:40:11;;;;;;;;;;;22.10;99.90;;;;;;5070652;28;19989;-73
2021/11/24 06:42:37;;;;;;;;;;;22.10;99.90;;;;;;5070800;28;19920;-72
2021/11/24 06:45:05;;;;;;;;;;;22.10;99.90;;;;;;5070333;28;19908;-72
2021/11/24 06:47:32;;;;;;;;;;;22.00;99.90;;;;;;5070756;28;19915;-72
2021/11/24 06:49:59;;;;;;;;;;;22.00;99.90;;;;;;5070391;28;20404;-73
2021/11/24 06:52:26;;;;;;;;;;;21.90;99.90;;;;;;5070703;28;19908;-75
2021/11/24 06:54:52;;;;;;;;;;;21.90;99.90;;;;;;5070525;28;19915;-70
2021/11/24 06:57:19;;;;;;;;;;;21.90;99.90;;;;;;5070385;28;20307;-76
2021/11/24 06:59:46;;;;;;;;;;;21.90;99.90;;;;;;5069980;28;19940;-68
2021/11/24 07:02:12;;;;;;;;;;;21.80;99.90;;;;;;5070551;28;19924;-74
2021/11/24 07:04:39;;;;;;;;;;;21.80;99.90;;;;;;5070540;28;19936;-71
2021/11/24 07:07:06;;;;;;;;;;;21.70;99.90;;;;;;5070536;28;20054;-73
2021/11/24 07:09:32;;;;;;;;;;;21.70;99.90;;;;;;5069858;28;19913;-73
2021/11/24 07:11:59;;;;;;;;;;;21.70;99.90;;;;;;5070126;28;20357;-74
2021/11/24 07:14:26;;;;;;;;;;;21.70;99.90;;;;;;5070233;28;19912;-74
2021/11/24 07:16:52;;;;;;;;;;;21.70;99.90;;;;;;5070380;28;19916;-75
2021/11/24 07:19:22;;;;;;;;;;;21.70;99.90;;;;;;5070273;28;19909;-74
2021/11/24 07:21:49;;;;;;;;;;;21.60;99.90;;;;;;5069985;28;20363;-75
2021/11/24 07:24:16;;;;;;;;;;;21.60;99.90;;;;;;5069906;28;19963;-69
2021/11/24 07:26:43;;;;;;;;;;;21.60;99.90;;;;;;5070202;28;20270;-76
2021/11/24 07:29:10;;;;;;;;;;;21.60;99.90;;;;;;5070063;28;20452;-72
2021/11/24 07:31:37;;;;;;;;;;;21.50;99.90;;;;;;5070174;28;19912;-73
2021/11/24 07:34:03;;;;;;;;;;;21.50;99.90;;;;;;5070091;28;19966;-75
2021/11/24 07:36:30;;;;;;;;;;;21.50;99.90;;;;;;5072086;28;20389;-75
2021/11/24 07:38:57;;;;;;;;;;;21.50;99.90;;;;;;5074154;28;19916;-73
2021/11/24 07:41:24;;;;;;;;;;;21.50;99.90;;;;;;5074162;28;19927;-72
2021/11/24 07:43:51;;;;;;;;;;;21.40;99.90;;;;;;5073856;28;20454;-73
2021/11/24 07:46:17;;;;;;;;;;;21.40;99.90;;;;;;5073926;28;19978;-74
2021/11/24 07:48:44;;;;;;;;;;;21.40;99.90;;;;;;5073606;28;19934;-74
2021/11/24 07:51:16;;;;;;;;;;;21.40;99.90;;;;;;5073595;28;19914;-73
2021/11/24 07:53:44;;;;;;;;;;;21.40;99.90;;;;;;5073638;28;19947;-71
2021/11/24 07:56:11;;;;;;;;;;;21.40;99.90;;;;;;5073155;28;20412;-74
2021/11/24 07:58:40;;;;;;;;;;;21.40;99.90;;;;;;5073670;28;20006;-75
2021/11/24 08:01:10;;;;;;;;;;;21.40;99.90;;;;;;5073724;28;19926;-72
2021/11/24 08:03:37;;;;;;;;;;;21.30;99.90;;;;;;5073131;28;20274;-74
2021/11/24 08:06:04;;;;;;;;;;;21.30;99.90;;;;;;5074698;28;20259;-69
2021/11/24 08:08:31;;;;;;;;;;;21.30;99.90;;;;;;5075993;28;19954;-75
2021/11/24 08:10:58;;;;;;;;;;;21.30;99.90;;;;;;5075769;28;20227;-75
2021/11/24 08:13:25;;;;;;;;;;;21.30;99.90;;;;;;5075300;28;19993;-75
2021/11/24 08:15:52;;;;;;;;;;;21.30;99.90;;;;;;5075257;28;20348;-76
2021/11/24 08:18:19;;;;;;;;;;;21.30;99.90;;;;;;5075619;28;19908;-76
2021/11/24 08:20:45;;;;;;;;;;;21.30;99.90;;;;;;5075565;28;19915;-74
2021/11/24 08:23:12;;;;;;;;;;;21.30;99.90;;;;;;5075374;28;19947;-74
2021/11/24 08:25:39;;;;;;;;;;;21.30;99.90;;;;;;5073685;28;19952;-75
2021/11/24 08:28:06;;;;;;;;;;;21.20;99.90;;;;;;5075482;28;19912;-71
2021/11/24 08:30:32;;;;;;;;;;;21.20;99.90;;;;;;5075273;28;20170;-73
2021/11/24 08:32:59;;;;;;;;;;;21.20;99.90;;;;;;5075066;28;19920;-75
2021/11/24 08:35:26;;;;;;;;;;;21.20;99.90;;;;;;5075209;28;20022;-69
2021/11/24 08:37:52;;;;;;;;;;;21.20;99.90;;;;;;5075002;28;20379;-72
2021/11/24 08:40:19;;;;;;;;;;;21.20;99.90;;;;;;5074707;28;19909;-72
2021/11/24 08:42:46;;;;;;;;;;;21.20;99.90;;;;;;5075219;28;19909;-74
2021/11/24 08:45:13;;;;;;;;;;;21.20;99.90;;;;;;5074816;28;19913;-73
2021/11/24 08:47:41;;;;;;;;;;;21.20;99.90;;;;;;5074067;28;19915;-72
2021/11/24 08:50:09;;;;;;;;;;;21.10;99.90;;;;;;5074955;28;19999;-71
2021/11/24 08:52:35;;;;;;;;;;;21.10;99.90;;;;;;5074902;28;20002;-71
2021/11/24 08:55:04;;;;;;;;;;;21.10;99.90;;;;;;5074210;28;20003;-74
2021/11/24 08:57:30;;;;;;;;;;;21.10;99.90;;;;;;5074885;28;19924;-75
2021/11/24 08:59:57;;;;;;;;;;;21.10;99.90;;;;;;5074120;28;19920;-71
2021/11/24 09:02:28;;;;;;;;;;;21.10;99.90;;;;;;5074911;28;19916;-75
2021/11/24 09:04:55;;;;;;;;;;;21.00;99.90;;;;;;5074848;28;19919;-72
2021/11/24 09:07:22;;;;;;;;;;;20.90;99.90;;;;;;5074608;28;19909;-72
2021/11/24 09:09:49;;;;;;;;;;;20.80;99.90;;;;;;5073691;28;20034;-75
2021/11/24 09:12:15;;;;;;;;;;;20.70;99.90;;;;;;5074882;28;19912;-75
2021/11/24 09:14:42;;;;;;;;;;;20.70;99.90;;;;;;5074487;28;19944;-74
2021/11/24 09:17:09;;;;;;;;;;;20.70;99.90;;;;;;5074557;28;19916;-75
2021/11/24 09:19:37;;;;;;;;;;;20.60;99.90;;;;;;5074498;28;19912;-76
2021/11/24 09:22:06;;;;;;;;;;;20.60;99.90;;;;;;5074176;28;19909;-73
2021/11/24 09:24:33;;;;;;;;;;;20.50;99.90;;;;;;5073889;28;20326;-75
2021/11/24 09:27:18;;;;;;;;;;;20.50;99.90;;;;;;5074276;28;19909;-73
2021/11/24 09:29:47;;;;;;;;;;;20.50;99.90;;;;;;5073981;28;19912;-75
2021/11/24 09:32:16;;;;;;;;;;;20.40;99.90;;;;;;5072035;28;19963;-72
2021/11/24 09:34:43;;;;;;;;;;;20.40;99.90;;;;;;5072679;28;20389;-70
2021/11/24 09:37:10;;;;;;;;;;;20.40;99.90;;;;;;5071824;28;19925;-75
2021/11/24 09:39:37;;;;;;;;;;;20.40;99.90;;;;;;5072126;28;19915;-76
2021/11/24 09:42:04;;;;;;;;;;;20.40;99.90;;;;;;5072009;28;20307;-78
2021/11/24 09:44:31;;;;;;;;;;;20.40;99.90;;;;;;5071570;28;19909;-76
2021/11/24 09:46:59;;;;;;;;;;;20.40;99.90;;;;;;5072142;28;20329;-77
2021/11/24 09:49:26;;;;;;;;;;;20.40;99.90;;;;;;5071921;28;20282;-75
2021/11/24 09:51:53;;;;;;;;;;;20.30;99.90;;;;;;5071742;28;19955;-75
2021/11/24 09:54:20;;;;;;;;;;;20.40;99.90;;;;;;5071825;28;20278;-72
2021/11/24 09:56:47;;;;;;;;;;;20.30;99.90;;;;;;5071020;28;19928;-73
2021/11/24 09:59:14;;;;;;;;;;;20.30;99.90;;;;;;5070496;28;19912;-74
2021/11/24 10:01:41;;;;;;;;;;;20.30;99.90;;;;;;5070951;28;20007;-77
2021/11/24 10:04:09;;;;;;;;;;;20.30;99.90;;;;;;5071268;28;19909;-74
2021/11/24 10:06:39;;;;;;;;;;;20.30;99.90;;;;;;5071326;28;19920;-77
2021/11/24 10:09:06;;;;;;;;;;;20.20;99.90;;;;;;5071530;28;19954;-72
2021/11/24 10:11:33;;;;;;;;;;;20.20;99.90;;;;;;5071143;28;20324;-75
2021/11/24 10:14:00;;;;;;;;;;;20.30;99.90;;;;;;5070927;28;19912;-76
2021/11/24 10:16:28;;;;;;;;;;;20.20;99.90;;;;;;5070489;28;19921;-76
2021/11/24 10:19:01;;;;;;;;;;;20.20;99.90;;;;;;5071489;28;19962;-76
2021/11/24 10:21:28;;;;;;;;;;;20.20;99.90;;;;;;5071562;28;20003;-76
2021/11/24 10:23:58;;;;;;;;;;;20.20;99.90;;;;;;5069393;28;20432;-75
2021/11/24 10:26:28;;;;;;;;;;;20.20;99.90;;;;;;5071414;28;19948;-76
2021/11/24 10:28:55;;;;;;;;;;;20.20;99.90;;;;;;5071012;28;19920;-75
2021/11/24 10:31:28;;;;;;;;;;;20.20;99.90;;;;;;5071002;28;19912;-75
2021/11/24 10:33:56;;;;;;;;;;;20.20;99.90;;;;;;5070810;28;19908;-74
2021/11/24 10:36:23;;;;;;;;;;;20.20;99.90;;;;;;5070583;28;19928;-76
2021/11/24 10:38:51;;;;;;;;;;;20.10;99.90;;;;;;5070776;28;19912;-74
2021/11/24 10:41:30;;;;;;;;;;;20.10;99.90;;;;;;5070871;28;19962;-76
2021/11/24 10:43:57;;;;;;;;;;;20.20;99.90;;;;;;5070628;28;19908;-75
2021/11/24 10:46:24;;;;;;;;;;;20.10;99.90;;;;;;5070768;28;20007;-76
2021/11/24 10:49:03;;;;;;;;;;;20.20;99.90;;;;;;5070670;28;20709;-77
2021/11/24 10:51:38;;;;;;;;;;;20.20;99.90;;;;;;5070893;28;19935;-76
2021/11/24 10:54:08;;;;;;;;;;;20.10;99.90;;;;;;5070463;28;20392;-76
2021/11/24 10:56:55;;;;;;;;;;;20.10;99.90;;;;;;5070493;28;19925;-76
2021/11/24 10:59:21;;;;;;;;;;;20.10;99.90;;;;;;5070199;28;20310;-77
2021/11/24 11:01:48;;;;;;;;;;;20.20;99.90;;;;;;5070327;28;19986;-75
2021/11/24 11:04:15;;;;;;;;;;;20.20;99.90;;;;;;5070113;28;20011;-76
2021/11/24 11:06:42;;;;;;;;;;;20.10;99.90;;;;;;5070471;28;19908;-76
2021/11/24 11:09:09;;;;;;;;;;;20.20;99.90;;;;;;5070341;28;19915;-76
2021/11/24 11:11:37;;;;;;;;;;;20.20;99.90;;;;;;5069776;28;19908;-70
2021/11/24 11:14:16;;;;;;;;;;;20.10;99.90;;;;;;5070406;28;19909;-76
2021/11/24 11:16:50;;;;;;;;;;;20.20;99.90;;;;;;5070043;28;19917;-75
2021/11/24 11:19:35;;;;;;;;;;;20.20;99.90;;;;;;5070449;28;20050;-76
2021/11/24 11:22:02;;;;;;;;;;;20.20;99.90;;;;;;5070302;28;19951;-76
2021/11/24 11:24:28;;;;;;;;;;;20.20;99.90;;;;;;5070455;28;20006;-76
2021/11/24 11:26:56;;;;;;;;;;;20.20;99.90;;;;;;5070410;28;20308;-77
2021/11/24 11:29:23;;;;;;;;;;;20.20;99.90;;;;;;5069749;28;19915;-76
2021/11/24 11:31:50;;;;;;;;;;;20.10;99.90;;;;;;5070198;28;19908;-75
2021/11/24 11:34:17;;;;;;;;;;;20.20;99.90;;;;;;5069325;28;20363;-72
2021/11/24 11:36:44;;;;;;;;;;;20.10;99.90;;;;;;5069787;28;19917;-77
2021/11/24 11:39:10;;;;;;;;;;;20.10;99.90;;;;;;5070521;28;20371;-74
2021/11/24 11:41:38;;;;;;;;;;;20.10;99.90;;;;;;5070424;28;20355;-76
2021/11/24 11:44:05;;;;;;;;;;;20.10;99.90;;;;;;5069813;28;19978;-69
2021/11/24 11:46:42;;;;;;;;;;;20.20;99.90;;;;;;5070097;28;20059;-71
2021/11/24 11:49:11;;;;;;;;;;;20.20;99.90;;;;;;5069680;28;19919;-72
2021/11/24 11:51:39;;;;;;;;;;;20.20;99.90;;;;;;5070280;28;19908;-71
2021/11/24 11:54:07;;;;;;;;;;;20.20;99.90;;;;;;5069940;28;19913;-73
2021/11/24 11:56:36;;;;;;;;;;;20.20;99.90;;;;;;5069835;28;19927;-71
2021/11/24 11:59:09;;;;;;;;;;;20.10;99.90;;;;;;5069692;28;19913;-72
2021/11/24 12:01:57;;;;;;;;;;;20.10;99.90;;;;;;5069851;28;19924;-72
2021/11/24 12:04:27;;;;;;;;;;;20.10;99.90;;;;;;5069395;28;20015;-69
2021/11/24 12:06:53;;;;;;;;;;;20.20;99.90;;;;;;5069942;28;19918;-73
2021/11/24 12:09:23;;;;;;;;;;;20.20;99.90;;;;;;5070271;28;19909;-70
2021/11/24 12:12:04;;;;;;;;;;;20.10;99.90;;;;;;5069560;28;19912;-73
2021/11/24 12:14:43;;;;;;;;;;;20.10;99.90;;;;;;5069592;28;20055;-71
2021/11/24 12:17:36;;;;;;;;;;;20.10;99.90;;;;;;5069914;28;19927;-71
2021/11/24 12:20:16;;;;;;;;;;;20.10;99.90;;;;;;5070145;28;19917;-70
2021/11/24 12:22:54;;;;;;;;;;;20.10;99.90;;;;;;5072243;28;19995;-69
2021/11/24 12:25:23;;;;;;;;;;;20.10;99.90;;;;;;5073529;28;19978;-70
2021/11/24 12:33:10;;;;;;;;;;;20.10;99.90;;;;;;5073053;28;19912;-68
2021/11/24 12:35:38;;;;;;;;;;;20.00;99.90;;;;;;5072938;28;20030;-67
2021/11/24 12:38:06;;;;;;;;;;;20.10;99.90;;;;;;5073132;28;19919;-70
2021/11/24 12:40:37;;;;;;;;;;;20.00;99.90;;;;;;5072972;28;19909;-69
2021/11/24 12:43:05;;;;;;;;;;;20.10;99.90;;;;;;5073062;28;19912;-68
2021/11/24 12:45:32;;;;;;;;;;;20.10;99.90;;;;;;5073217;28;19919;-72
2021/11/24 12:48:00;;;;;;;;;;;20.10;99.90;;;;;;5072975;28;19918;-74
2021/11/24 12:50:27;;;;;;;;;;;20.10;99.90;;;;;;5073201;28;19908;-73
2021/11/24 12:52:57;;;;;;;;;;;20.10;99.90;;;;;;5072838;28;19995;-71
2021/11/24 12:55:24;;;;;;;;;;;20.10;99.90;;;;;;5072752;28;19913;-69
2021/11/24 12:57:51;;;;;;;;;;;20.00;99.90;;;;;;5072865;28;19969;-70
2021/11/24 13:00:25;;;;;;;;;;;20.10;99.90;;;;;;5072700;28;19962;-72
2021/11/24 13:02:51;;;;;;;;;;;20.00;99.90;;;;;;5073090;28;19912;-70
2021/11/24 13:05:18;;;;;;;;;;;20.00;99.90;;;;;;5072919;28;19955;-68
2021/11/24 13:07:54;;;;;;;;;;;20.00;99.90;;;;;;5072383;28;20363;-72
2021/11/24 13:10:22;;;;;;;;;;;20.10;99.90;;;;;;5072987;28;20006;-70
2021/11/24 13:12:49;;;;;;;;;;;20.00;99.90;;;;;;5072572;28;19912;-71
2021/11/24 13:15:16;;;;;;;;;;;20.00;99.90;;;;;;5072563;28;19912;-71
2021/11/24 13:17:45;;;;;;;;;;;20.00;99.90;;;;;;5072554;28;20018;-72
2021/11/24 13:20:15;;;;;;;;;;;20.00;99.90;;;;;;5072293;28;19961;-69
2021/11/24 13:22:44;;;;;;;;;;;20.00;99.90;;;;;;5072422;28;19912;-71
2021/11/24 13:25:22;;;;;;;;;;;20.10;99.90;;;;;;5072634;28;19909;-72
2021/11/24 13:27:51;;;;;;;;;;;20.10;99.90;;;;;;5072239;28;19909;-71
2021/11/24 13:30:19;;;;;;;;;;;20.10;99.90;;;;;;5072259;28;19915;-73
2021/11/24 13:33:25;;;;;;;;;;;20.10;99.90;;;;;;5071888;28;19966;-75
2021/11/24 13:35:55;;;;;;;;;;;20.00;99.90;;;;;;5029629;28;20403;-71
2021/11/24 13:38:23;;;;;;;;;;;20.00;99.90;;;;;;5029728;28;19913;-70
2021/11/24 13:40:54;;;;;;;;;;;20.00;99.90;;;;;;5051638;28;20378;-75
2021/11/24 13:43:40;;;;;;;;;;;20.00;99.90;;;;;;5071976;28;19963;-71
2021/11/24 13:46:11;;;;;;;;;;;20.00;99.90;;;;;;5071602;28;19915;-72
2021/11/24 13:48:38;;;;;;;;;;;20.00;99.90;;;;;;5072158;28;20346;-71
2021/11/24 13:51:08;;;;;;;;;;;20.00;99.90;;;;;;5072100;28;19958;-70
2021/11/24 13:53:38;;;;;;;;;;;19.90;99.90;;;;;;5071924;28;19987;-72
2021/11/24 13:56:12;;;;;;;;;;;19.90;99.90;;;;;;5071704;28;19927;-72
2021/11/24 13:58:40;;;;;;;;;;;20.00;99.90;;;;;;5071395;28;19913;-69
2021/11/24 14:01:17;;;;;;;;;;;20.00;99.90;;;;;;5071534;28;19931;-70
2021/11/24 14:03:47;;;;;;;;;;;19.90;99.90;;;;;;5071658;28;19912;-73
2021/11/24 14:06:32;;;;;;;;;;;20.00;99.90;;;;;;5071499;28;20341;-71
2021/11/24 14:09:15;;;;;;;;;;;20.00;99.90;;;;;;5071678;28;19912;-75
2021/11/24 14:11:54;;;;;;;;;;;20.00;99.90;;;;;;5071178;28;19908;-74
2021/11/24 14:14:21;;;;;;;;;;;20.00;99.90;;;;;;5071570;28;19915;-74
2021/11/24 14:16:55;;;;;;;;;;;20.00;99.90;;;;;;5071267;28;19920;-73
2021/11/24 14:19:21;;;;;;;;;;;19.90;99.90;;;;;;5071253;28;19959;-72
2021/11/24 14:21:52;;;;;;;;;;;19.90;99.90;;;;;;5071044;28;19915;-75
2021/11/24 14:24:19;;;;;;;;;;;19.90;99.90;;;;;;5071141;28;19909;-74
2021/11/24 14:26:46;;;;;;;;;;;19.90;99.90;;;;;;5071279;28;19908;-73
2021/11/24 14:29:13;;;;;;;;;;;20.00;99.90;;;;;;5086599;28;19913;-74